createdAt,value
2022-12-25T00:00:00.603Z,0.045
2022-12-25T00:01:00.507Z,0.045
2022-12-25T00:02:00.516Z,0.045
2022-12-25T00:03:00.707Z,0.045
2022-12-25T00:04:00.732Z,0.045
2022-12-25T00:05:00.471Z,0.045
2022-12-25T00:06:00.578Z,0.045
2022-12-25T00:07:00.499Z,0.045
2022-12-25T00:08:00.404Z,0.045
2022-12-25T00:09:00.375Z,0.045
2022-12-25T00:10:00.428Z,0.045
2022-12-25T00:11:00.401Z,0.045
2022-12-25T00:12:00.639Z,0.045
2022-12-25T00:13:00.437Z,0.045
2022-12-25T00:14:00.472Z,0.045
2022-12-25T00:15:00.372Z,0.045
2022-12-25T00:16:00.811Z,0.045
2022-12-25T00:17:00.404Z,0.045
2022-12-25T00:18:00.621Z,0.045
2022-12-25T00:19:00.373Z,0.045
2022-12-25T00:20:00.435Z,0.045
2022-12-25T00:21:00.403Z,0.045
2022-12-25T00:22:00.433Z,0.045
2022-12-25T00:23:00.408Z,0.045
2022-12-25T00:24:00.766Z,0.045
2022-12-25T00:25:00.386Z,0.090
2022-12-25T00:26:00.441Z,0.045
2022-12-25T00:27:00.463Z,0.045
2022-12-25T00:28:00.615Z,0.045
2022-12-25T00:29:00.390Z,0.045
2022-12-25T00:30:00.666Z,0.045
2022-12-25T00:31:00.534Z,0.045
2022-12-25T00:32:00.726Z,0.045
2022-12-25T00:33:00.405Z,0.045
2022-12-25T00:34:00.440Z,0.045
2022-12-25T00:35:00.539Z,0.045
2022-12-25T00:36:00.677Z,0.045
2022-12-25T00:37:00.467Z,0.045
2022-12-25T00:38:00.412Z,0.045
2022-12-25T00:39:00.410Z,0.045
2022-12-25T00:40:00.382Z,0.045
2022-12-25T00:41:00.412Z,0.045
2022-12-25T00:42:00.637Z,0.045
2022-12-25T00:43:00.415Z,0.045
2022-12-25T00:44:00.458Z,0.045
2022-12-25T00:45:00.468Z,0.045
2022-12-25T00:46:00.551Z,0.045
2022-12-25T00:47:00.784Z,0.045
2022-12-25T00:48:00.562Z,0.045
2022-12-25T00:49:00.421Z,0.045
2022-12-25T00:50:00.404Z,0.045
2022-12-25T00:51:00.447Z,0.045
2022-12-25T00:52:00.435Z,0.045
2022-12-25T00:53:00.391Z,0.045
2022-12-25T00:54:00.614Z,0.045
2022-12-25T00:55:00.506Z,0.045
2022-12-25T00:56:00.442Z,0.045
2022-12-25T00:57:00.498Z,0.045
2022-12-25T00:58:00.372Z,0.045
2022-12-25T00:59:00.464Z,0.045
2022-12-25T01:00:00.684Z,0.045
2022-12-25T01:01:00.509Z,0.045
2022-12-25T01:02:00.738Z,0.045
2022-12-25T01:03:00.589Z,0.045
2022-12-25T01:04:00.385Z,0.045
2022-12-25T01:05:00.441Z,0.045
2022-12-25T01:06:00.597Z,0.045
2022-12-25T01:07:00.448Z,0.045
2022-12-25T01:08:00.433Z,0.045
2022-12-25T01:09:00.388Z,0.045
2022-12-25T01:10:00.431Z,0.045
2022-12-25T01:11:00.414Z,0.045
2022-12-25T01:12:00.572Z,0.045
2022-12-25T01:13:00.399Z,0.045
2022-12-25T01:14:00.438Z,0.045
2022-12-25T01:15:00.425Z,0.045
2022-12-25T01:16:00.474Z,0.045
2022-12-25T01:17:00.630Z,0.045
2022-12-25T01:18:05.662Z,0.045
2022-12-25T01:19:00.467Z,0.045
2022-12-25T01:20:00.680Z,0.045
2022-12-25T01:21:00.442Z,0.045
2022-12-25T01:22:00.806Z,0.045
2022-12-25T01:23:00.681Z,0.045
2022-12-25T01:24:00.979Z,0.045
2022-12-25T01:25:00.635Z,0.045
2022-12-25T01:26:00.613Z,0.045
2022-12-25T01:27:00.522Z,0.045
2022-12-25T01:28:00.589Z,0.045
2022-12-25T01:29:00.768Z,0.045
2022-12-25T01:30:00.932Z,0.045
2022-12-25T01:31:00.682Z,0.045
2022-12-25T01:32:01.036Z,0.045
2022-12-25T01:33:00.621Z,0.045
2022-12-25T01:34:00.462Z,0.045
2022-12-25T01:35:00.530Z,0.045
2022-12-25T01:36:00.524Z,0.045
2022-12-25T01:37:00.577Z,0.045
2022-12-25T01:38:00.487Z,0.045
2022-12-25T01:39:00.543Z,0.045
2022-12-25T01:40:00.427Z,0.045
2022-12-25T01:41:00.500Z,0.045
2022-12-25T01:42:00.618Z,0.045
2022-12-25T01:43:00.440Z,0.045
2022-12-25T01:44:00.473Z,0.045
2022-12-25T01:45:00.534Z,0.045
2022-12-25T01:46:00.569Z,0.045
2022-12-25T01:47:00.566Z,0.045
2022-12-25T01:48:00.577Z,0.045
2022-12-25T01:49:00.496Z,0.045
2022-12-25T01:50:00.365Z,0.045
2022-12-25T01:51:00.468Z,0.045
2022-12-25T01:52:00.432Z,0.045
2022-12-25T01:53:00.459Z,0.045
2022-12-25T01:54:00.821Z,0.045
2022-12-25T01:55:00.472Z,0.045
2022-12-25T01:56:00.382Z,0.045
2022-12-25T01:57:00.404Z,0.045
2022-12-25T01:58:00.399Z,0.045
2022-12-25T01:59:00.448Z,0.045
2022-12-25T02:00:00.563Z,0.045
2022-12-25T02:01:00.458Z,0.045
2022-12-25T02:02:00.613Z,0.045
2022-12-25T02:03:00.507Z,0.045
2022-12-25T02:04:00.426Z,0.045
2022-12-25T02:05:00.426Z,0.045
2022-12-25T02:06:00.550Z,0.045
2022-12-25T02:07:00.430Z,0.045
2022-12-25T02:08:00.468Z,0.045
2022-12-25T02:09:00.423Z,0.045
2022-12-25T02:10:00.437Z,0.045
2022-12-25T02:11:00.475Z,0.045
2022-12-25T02:12:00.607Z,0.045
2022-12-25T02:13:00.395Z,0.045
2022-12-25T02:14:00.400Z,0.045
2022-12-25T02:15:05.231Z,0.045
2022-12-25T02:16:00.450Z,0.045
2022-12-25T02:17:00.581Z,0.045
2022-12-25T02:18:00.694Z,0.045
2022-12-25T02:19:00.428Z,0.045
2022-12-25T02:20:00.410Z,0.045
2022-12-25T02:21:00.444Z,0.045
2022-12-25T02:22:00.451Z,0.045
2022-12-25T02:23:00.427Z,0.045
2022-12-25T02:24:00.640Z,0.045
2022-12-25T02:25:00.423Z,0.045
2022-12-25T02:26:00.417Z,0.045
2022-12-25T02:27:00.414Z,0.045
2022-12-25T02:28:00.405Z,0.045
2022-12-25T02:29:00.440Z,0.045
2022-12-25T02:30:00.554Z,0.045
2022-12-25T02:31:00.436Z,0.045
2022-12-25T02:32:00.769Z,0.045
2022-12-25T02:33:00.409Z,0.045
2022-12-25T02:34:00.419Z,0.045
2022-12-25T02:35:00.399Z,0.045
2022-12-25T02:36:00.603Z,0.045
2022-12-25T02:37:00.468Z,0.045
2022-12-25T02:38:00.471Z,0.045
2022-12-25T02:39:00.487Z,0.045
2022-12-25T02:40:00.574Z,0.045
2022-12-25T02:41:00.472Z,0.045
2022-12-25T02:42:00.604Z,0.045
2022-12-25T02:43:00.381Z,0.045
2022-12-25T02:44:00.418Z,0.045
2022-12-25T02:45:00.451Z,0.045
2022-12-25T02:46:00.471Z,0.045
2022-12-25T02:47:00.444Z,0.045
2022-12-25T02:48:00.527Z,0.045
2022-12-25T02:49:00.405Z,0.045
2022-12-25T02:50:00.402Z,0.045
2022-12-25T02:51:00.444Z,0.045
2022-12-25T02:52:00.393Z,0.045
2022-12-25T02:53:00.377Z,0.045
2022-12-25T02:54:00.552Z,0.045
2022-12-25T02:55:00.417Z,0.045
2022-12-25T02:56:00.432Z,0.045
2022-12-25T02:57:00.436Z,0.045
2022-12-25T02:58:00.404Z,0.045
2022-12-25T02:59:00.412Z,0.045
2022-12-25T03:00:00.655Z,0.045
2022-12-25T03:01:00.496Z,0.045
2022-12-25T03:02:00.632Z,0.045
2022-12-25T03:03:00.610Z,0.045
2022-12-25T03:04:00.436Z,0.045
2022-12-25T03:05:00.395Z,0.045
2022-12-25T03:06:00.560Z,0.045
2022-12-25T03:07:00.476Z,0.045
2022-12-25T03:08:00.512Z,0.045
2022-12-25T03:09:00.510Z,0.045
2022-12-25T03:10:00.395Z,0.045
2022-12-25T03:11:00.461Z,0.045
2022-12-25T03:12:00.581Z,0.045
2022-12-25T03:13:00.412Z,0.045
2022-12-25T03:14:00.405Z,0.045
2022-12-25T03:15:00.439Z,0.045
2022-12-25T03:16:00.458Z,0.045
2022-12-25T03:17:00.515Z,0.045
2022-12-25T03:18:00.569Z,0.045
2022-12-25T03:19:00.397Z,0.045
2022-12-25T03:20:00.405Z,0.045
2022-12-25T03:21:00.403Z,0.045
2022-12-25T03:22:00.406Z,0.045
2022-12-25T03:23:00.400Z,0.045
2022-12-25T03:24:00.521Z,0.045
2022-12-25T03:25:00.414Z,0.045
2022-12-25T03:26:00.471Z,0.045
2022-12-25T03:27:00.403Z,0.045
2022-12-25T03:28:00.431Z,0.045
2022-12-25T03:29:00.411Z,0.045
2022-12-25T03:30:00.551Z,0.045
2022-12-25T03:31:00.469Z,0.045
2022-12-25T03:32:00.550Z,0.045
2022-12-25T03:33:03.587Z,0.045
2022-12-25T03:34:00.424Z,0.045
2022-12-25T03:35:00.434Z,0.045
2022-12-25T03:36:00.561Z,0.045
2022-12-25T03:37:00.467Z,0.045
2022-12-25T03:38:00.457Z,0.045
2022-12-25T03:39:00.389Z,0.045
2022-12-25T03:40:00.365Z,0.045
2022-12-25T03:41:00.430Z,0.045
2022-12-25T03:42:00.585Z,0.045
2022-12-25T03:43:00.420Z,0.090
2022-12-25T03:44:00.408Z,0.090
2022-12-25T03:45:00.399Z,0.090
2022-12-25T03:46:00.535Z,0.135
2022-12-25T03:47:00.401Z,0.135
2022-12-25T03:48:00.595Z,0.180
2022-12-25T03:49:00.411Z,0.180
2022-12-25T03:50:00.393Z,0.225
2022-12-25T03:51:00.455Z,0.270
2022-12-25T03:52:00.536Z,0.270
2022-12-25T03:53:00.464Z,0.360
2022-12-25T03:54:00.523Z,0.450
2022-12-25T03:55:00.370Z,0.495
2022-12-25T03:56:00.389Z,0.630
2022-12-25T03:57:00.399Z,0.765
2022-12-25T03:58:00.406Z,0.990
2022-12-25T03:59:00.403Z,1.170
2022-12-25T04:00:00.605Z,1.395
2022-12-25T04:01:00.602Z,1.710
2022-12-25T04:02:00.612Z,2.160
2022-12-25T04:03:00.572Z,2.565
2022-12-25T04:04:00.494Z,3.105
2022-12-25T04:05:00.384Z,3.690
2022-12-25T04:06:00.563Z,4.365
2022-12-25T04:07:00.487Z,5.130
2022-12-25T04:08:00.431Z,6.075
2022-12-25T04:09:00.488Z,7.110
2022-12-25T04:10:00.507Z,8.280
2022-12-25T04:11:00.409Z,9.630
2022-12-25T04:12:02.583Z,11.205
2022-12-25T04:13:00.377Z,12.960
2022-12-25T04:14:00.440Z,15.030
2022-12-25T04:15:00.445Z,17.280
2022-12-25T04:16:00.566Z,19.800
2022-12-25T04:17:00.430Z,22.590
2022-12-25T04:18:00.575Z,25.560
2022-12-25T04:19:00.438Z,28.980
2022-12-25T04:20:00.415Z,32.220
2022-12-25T04:21:00.414Z,36.180
2022-12-25T04:22:00.442Z,40.320
2022-12-25T04:23:00.452Z,44.460
2022-12-25T04:24:00.511Z,48.960
2022-12-25T04:25:00.458Z,53.640
2022-12-25T04:26:00.462Z,58.320
2022-12-25T04:27:00.495Z,63.360
2022-12-25T04:28:00.445Z,68.760
2022-12-25T04:29:00.409Z,74.160
2022-12-25T04:30:00.638Z,79.560
2022-12-25T04:31:00.552Z,84.960
2022-12-25T04:32:00.406Z,90.720
2022-12-25T04:33:00.547Z,95.760
2022-12-25T04:34:00.398Z,101.520
2022-12-25T04:35:00.384Z,107.280
2022-12-25T04:36:00.650Z,113.040
2022-12-25T04:37:00.414Z,119.520
2022-12-25T04:38:00.378Z,126.000
2022-12-25T04:39:00.424Z,133.920
2022-12-25T04:40:00.423Z,141.120
2022-12-25T04:41:00.442Z,149.040
2022-12-25T04:42:00.558Z,159.120
2022-12-25T04:43:00.408Z,168.480
2022-12-25T04:44:00.398Z,177.840
2022-12-25T04:45:00.380Z,187.200
2022-12-25T04:46:00.497Z,195.840
2022-12-25T04:47:02.495Z,205.920
2022-12-25T04:48:00.575Z,217.440
2022-12-25T04:49:00.416Z,230.400
2022-12-25T04:50:00.438Z,244.800
2022-12-25T04:51:00.421Z,257.760
2022-12-25T04:52:00.381Z,269.280
2022-12-25T04:53:00.427Z,283.680
2022-12-25T04:54:00.569Z,298.080
2022-12-25T04:55:00.488Z,313.920
2022-12-25T04:56:00.423Z,329.760
2022-12-25T04:57:00.465Z,347.040
2022-12-25T04:58:00.440Z,367.200
2022-12-25T04:59:00.445Z,385.920
2022-12-25T05:00:00.526Z,403.200
2022-12-25T05:01:00.413Z,420.480
2022-12-25T05:02:00.532Z,437.760
2022-12-25T05:03:00.848Z,455.040
2022-12-25T05:04:00.651Z,466.560
2022-12-25T05:05:00.504Z,480.960
2022-12-25T05:06:00.683Z,498.240
2022-12-25T05:07:00.529Z,518.400
2022-12-25T05:08:00.473Z,535.680
2022-12-25T05:09:00.419Z,552.960
2022-12-25T05:10:00.448Z,567.360
2022-12-25T05:11:00.473Z,581.760
2022-12-25T05:12:00.599Z,596.160
2022-12-25T05:13:00.493Z,607.680
2022-12-25T05:14:00.415Z,619.200
2022-12-25T05:15:00.446Z,630.720
2022-12-25T05:16:00.479Z,642.240
2022-12-25T05:17:00.424Z,656.640
2022-12-25T05:18:00.542Z,668.160
2022-12-25T05:19:00.546Z,682.560
2022-12-25T05:20:00.414Z,694.080
2022-12-25T05:21:00.440Z,705.600
2022-12-25T05:22:00.442Z,720.000
2022-12-25T05:23:00.426Z,737.280
2022-12-25T05:24:00.574Z,766.080
2022-12-25T05:25:00.383Z,800.640
2022-12-25T05:26:00.432Z,840.960
2022-12-25T05:27:00.438Z,898.560
2022-12-25T05:28:00.380Z,956.160
2022-12-25T05:29:00.448Z,1082.880
2022-12-25T05:30:00.532Z,1146.240
2022-12-25T05:31:00.462Z,1186.560
2022-12-25T05:32:00.413Z,1221.120
2022-12-25T05:33:00.419Z,1267.200
2022-12-25T05:34:00.492Z,1330.560
2022-12-25T05:35:00.378Z,1405.440
2022-12-25T05:36:00.628Z,1497.600
2022-12-25T05:37:00.469Z,1589.760
2022-12-25T05:38:00.519Z,1681.920
2022-12-25T05:39:00.452Z,1774.080
2022-12-25T05:40:00.498Z,1866.240
2022-12-25T05:41:00.443Z,1958.400
2022-12-25T05:42:00.563Z,2050.560
2022-12-25T05:43:00.411Z,2142.720
2022-12-25T05:44:00.410Z,2246.400
2022-12-25T05:45:00.378Z,2465.280
2022-12-25T05:46:00.414Z,2476.800
2022-12-25T05:47:00.469Z,2603.520
2022-12-25T05:48:00.531Z,2741.760
2022-12-25T05:49:00.432Z,2856.960
2022-12-25T05:50:00.525Z,2810.880
2022-12-25T05:51:00.406Z,3179.520
2022-12-25T05:52:00.391Z,3456.000
2022-12-25T05:53:07.711Z,3640.320
2022-12-25T05:54:00.935Z,3801.600
2022-12-25T05:55:00.700Z,3916.800
2022-12-25T05:56:00.700Z,3939.840
2022-12-25T05:57:00.380Z,3962.880
2022-12-25T05:58:00.374Z,3801.600
2022-12-25T05:59:00.382Z,3502.080
2022-12-25T06:00:00.549Z,3110.400
2022-12-25T06:01:00.426Z,3087.360
2022-12-25T06:02:00.648Z,3087.360
2022-12-25T06:03:00.590Z,3225.600
2022-12-25T06:04:00.536Z,3294.720
2022-12-25T06:05:00.547Z,3340.800
2022-12-25T06:06:00.565Z,3363.840
2022-12-25T06:07:00.493Z,3686.400
2022-12-25T06:08:00.428Z,4078.080
2022-12-25T06:09:00.374Z,4101.120
2022-12-25T06:10:00.491Z,3962.880
2022-12-25T06:11:00.474Z,3732.480
2022-12-25T06:12:00.593Z,3363.840
2022-12-25T06:13:00.482Z,3456.000
2022-12-25T06:14:00.488Z,3617.280
2022-12-25T06:15:00.465Z,3225.600
2022-12-25T06:16:00.451Z,3156.480
2022-12-25T06:17:00.544Z,3133.440
2022-12-25T06:18:00.614Z,3110.400
2022-12-25T06:19:00.402Z,3179.520
2022-12-25T06:20:00.383Z,3225.600
2022-12-25T06:21:00.474Z,3271.680
2022-12-25T06:22:00.379Z,3386.880
2022-12-25T06:23:00.405Z,3479.040
2022-12-25T06:24:00.618Z,3571.200
2022-12-25T06:25:00.380Z,3686.400
2022-12-25T06:26:00.381Z,3801.600
2022-12-25T06:27:00.376Z,3939.840
2022-12-25T06:28:00.566Z,4124.160
2022-12-25T06:29:00.521Z,4308.480
2022-12-25T06:30:00.566Z,4538.880
2022-12-25T06:31:00.462Z,4723.200
2022-12-25T06:32:00.738Z,4838.400
2022-12-25T06:33:00.386Z,4930.560
2022-12-25T06:34:00.402Z,4976.640
2022-12-25T06:35:00.379Z,4976.640
2022-12-25T06:36:00.600Z,4930.560
2022-12-25T06:37:00.595Z,4907.520
2022-12-25T06:38:00.414Z,4861.440
2022-12-25T06:39:00.441Z,4838.400
2022-12-25T06:40:00.463Z,4792.320
2022-12-25T06:41:00.510Z,4746.240
2022-12-25T06:42:00.541Z,4746.240
2022-12-25T06:43:00.407Z,4700.160
2022-12-25T06:44:00.393Z,4677.120
2022-12-25T06:45:00.416Z,4654.080
2022-12-25T06:46:00.463Z,4700.160
2022-12-25T06:47:00.431Z,4792.320
2022-12-25T06:48:00.567Z,4861.440
2022-12-25T06:49:00.427Z,4838.400
2022-12-25T06:50:00.441Z,4746.240
2022-12-25T06:51:00.376Z,4700.160
2022-12-25T06:52:00.568Z,4700.160
2022-12-25T06:53:00.387Z,4608.000
2022-12-25T06:54:00.605Z,4538.880
2022-12-25T06:55:00.380Z,4469.760
2022-12-25T06:56:00.428Z,4446.720
2022-12-25T06:57:00.406Z,4377.600
2022-12-25T06:58:00.406Z,4377.600
2022-12-25T06:59:00.445Z,4400.640
2022-12-25T07:00:00.551Z,4492.800
2022-12-25T07:01:00.453Z,4561.920
2022-12-25T07:02:00.657Z,4677.120
2022-12-25T07:03:00.496Z,4700.160
2022-12-25T07:04:00.382Z,4907.520
2022-12-25T07:05:00.503Z,5207.040
2022-12-25T07:06:00.604Z,5414.400
2022-12-25T07:07:06.222Z,5552.640
2022-12-25T07:08:00.465Z,5690.880
2022-12-25T07:09:00.407Z,5852.160
2022-12-25T07:10:00.418Z,5944.320
2022-12-25T07:11:00.375Z,5990.400
2022-12-25T07:12:00.652Z,5944.320
2022-12-25T07:13:00.424Z,5875.200
2022-12-25T07:14:00.413Z,5875.200
2022-12-25T07:15:00.372Z,5852.160
2022-12-25T07:16:00.522Z,5806.080
2022-12-25T07:17:00.576Z,5783.040
2022-12-25T07:18:00.563Z,5783.040
2022-12-25T07:19:00.413Z,5852.160
2022-12-25T07:20:00.383Z,5990.400
2022-12-25T07:21:00.394Z,6082.560
2022-12-25T07:22:00.562Z,6174.720
2022-12-25T07:23:00.415Z,6220.800
2022-12-25T07:24:00.635Z,6266.880
2022-12-25T07:25:00.379Z,6359.040
2022-12-25T07:26:00.383Z,6359.040
2022-12-25T07:27:00.419Z,6451.200
2022-12-25T07:28:00.415Z,6312.960
2022-12-25T07:29:00.412Z,6128.640
2022-12-25T07:30:00.558Z,5944.320
2022-12-25T07:31:00.406Z,5783.040
2022-12-25T07:32:00.644Z,5667.840
2022-12-25T07:33:00.509Z,5621.760
2022-12-25T07:34:00.460Z,5552.640
2022-12-25T07:35:00.566Z,5529.600
2022-12-25T07:36:00.590Z,5575.680
2022-12-25T07:37:00.598Z,5667.840
2022-12-25T07:38:00.410Z,5760.000
2022-12-25T07:39:00.446Z,5829.120
2022-12-25T07:40:00.407Z,5852.160
2022-12-25T07:41:00.455Z,5898.240
2022-12-25T07:42:00.531Z,5944.320
2022-12-25T07:43:00.402Z,6082.560
2022-12-25T07:44:00.376Z,6266.880
2022-12-25T07:45:00.411Z,6451.200
2022-12-25T07:46:00.515Z,6589.440
2022-12-25T07:47:00.410Z,6865.920
2022-12-25T07:48:05.120Z,7050.240
2022-12-25T07:49:00.408Z,7188.480
2022-12-25T07:50:00.418Z,7280.640
2022-12-25T07:51:00.385Z,7326.720
2022-12-25T07:52:00.585Z,7372.800
2022-12-25T07:53:00.474Z,7464.960
2022-12-25T07:54:00.545Z,7603.200
2022-12-25T07:55:00.401Z,7649.280
2022-12-25T07:56:00.410Z,7695.360
2022-12-25T07:57:00.485Z,7649.280
2022-12-25T07:58:00.476Z,7649.280
2022-12-25T07:59:00.389Z,7649.280
2022-12-25T08:00:00.546Z,7695.360
2022-12-25T08:01:00.586Z,7741.440
2022-12-25T08:02:00.665Z,7787.520
2022-12-25T08:03:00.801Z,7833.600
2022-12-25T08:04:00.517Z,7879.680
2022-12-25T08:05:00.443Z,7925.760
2022-12-25T08:06:00.523Z,7971.840
2022-12-25T08:07:00.500Z,7971.840
2022-12-25T08:08:00.550Z,8017.920
2022-12-25T08:09:00.535Z,8064.000
2022-12-25T08:10:00.457Z,8156.160
2022-12-25T08:11:00.490Z,8202.240
2022-12-25T08:12:00.742Z,8248.320
2022-12-25T08:13:00.525Z,8017.920
2022-12-25T08:14:00.379Z,7879.680
2022-12-25T08:15:00.465Z,7695.360
2022-12-25T08:16:00.501Z,7511.040
2022-12-25T08:17:00.493Z,7557.120
2022-12-25T08:18:00.536Z,7511.040
2022-12-25T08:19:00.433Z,7280.640
2022-12-25T08:20:00.412Z,7096.320
2022-12-25T08:21:00.402Z,7188.480
2022-12-25T08:22:00.455Z,6958.080
2022-12-25T08:23:00.381Z,6912.000
2022-12-25T08:24:00.579Z,6589.440
2022-12-25T08:25:00.539Z,6497.280
2022-12-25T08:26:04.945Z,6497.280
2022-12-25T08:27:00.379Z,6727.680
2022-12-25T08:28:00.443Z,7234.560
2022-12-25T08:29:00.411Z,7234.560
2022-12-25T08:30:00.574Z,7188.480
2022-12-25T08:31:00.473Z,9308.160
2022-12-25T08:32:00.428Z,8156.160
2022-12-25T08:33:00.492Z,7142.400
2022-12-25T08:34:00.399Z,7464.960
2022-12-25T08:35:00.442Z,6912.000
2022-12-25T08:36:00.742Z,7004.160
2022-12-25T08:37:00.407Z,7557.120
2022-12-25T08:38:00.453Z,6681.600
2022-12-25T08:39:03.321Z,8709.120
2022-12-25T08:40:00.578Z,8570.880
2022-12-25T08:41:01.113Z,7050.240
2022-12-25T08:42:00.605Z,7372.800
2022-12-25T08:43:00.496Z,7096.320
2022-12-25T08:44:00.808Z,9400.320
2022-12-25T08:45:00.483Z,11473.920
2022-12-25T08:46:00.942Z,9953.280
2022-12-25T08:47:00.619Z,8616.960
2022-12-25T08:48:01.141Z,8524.800
2022-12-25T08:49:00.405Z,6635.520
2022-12-25T08:50:00.378Z,8017.920
2022-12-25T08:51:00.378Z,6451.200
2022-12-25T08:52:00.404Z,7004.160
2022-12-25T08:53:00.568Z,7695.360
2022-12-25T08:54:00.954Z,7511.040
2022-12-25T08:55:00.443Z,9354.240
2022-12-25T08:56:00.563Z,15022.080
2022-12-25T08:57:02.985Z,14561.280
2022-12-25T08:58:00.379Z,13916.160
2022-12-25T08:59:00.462Z,14837.760
2022-12-25T09:00:00.632Z,11059.200
2022-12-25T09:01:00.646Z,13639.680
2022-12-25T09:02:00.578Z,11980.800
2022-12-25T09:03:00.871Z,8985.600
2022-12-25T09:04:00.424Z,12994.560
2022-12-25T09:05:00.375Z,15390.720
2022-12-25T09:06:00.619Z,15575.040
2022-12-25T09:07:00.417Z,16128.000
2022-12-25T09:08:00.416Z,15759.360
2022-12-25T09:09:00.416Z,16035.840
2022-12-25T09:10:00.397Z,7234.560
2022-12-25T09:11:00.439Z,13639.680
2022-12-25T09:12:00.541Z,15390.720
2022-12-25T09:13:00.591Z,16773.119
2022-12-25T09:14:00.409Z,16588.801
2022-12-25T09:15:00.408Z,15298.560
2022-12-25T09:16:00.471Z,15022.080
2022-12-25T09:17:00.436Z,15114.240
2022-12-25T09:18:00.606Z,13916.160
2022-12-25T09:19:00.431Z,14192.640
2022-12-25T09:20:00.427Z,8985.600
2022-12-25T09:21:00.496Z,12625.920
2022-12-25T09:22:00.448Z,14100.480
2022-12-25T09:23:00.424Z,14745.600
2022-12-25T09:24:00.607Z,15022.080
2022-12-25T09:25:00.449Z,14837.760
2022-12-25T09:26:00.455Z,14745.600
2022-12-25T09:27:00.411Z,14837.760
2022-12-25T09:28:00.555Z,15667.200
2022-12-25T09:29:00.408Z,15022.080
2022-12-25T09:30:00.557Z,14653.440
2022-12-25T09:31:00.493Z,14376.960
2022-12-25T09:32:00.403Z,14376.960
2022-12-25T09:33:00.406Z,15022.080
2022-12-25T09:34:00.412Z,15206.400
2022-12-25T09:35:00.438Z,15206.400
2022-12-25T09:36:00.630Z,14653.440
2022-12-25T09:37:00.436Z,14837.760
2022-12-25T09:38:00.523Z,15667.200
2022-12-25T09:39:00.404Z,15575.040
2022-12-25T09:40:00.458Z,15298.560
2022-12-25T09:41:00.418Z,13363.200
2022-12-25T09:42:00.605Z,14929.920
2022-12-25T09:43:00.504Z,14929.920
2022-12-25T09:44:00.882Z,15298.560
2022-12-25T09:45:00.518Z,14284.800
2022-12-25T09:46:00.558Z,13086.720
2022-12-25T09:47:00.580Z,14284.800
2022-12-25T09:48:01.077Z,13639.680
2022-12-25T09:49:00.480Z,12994.560
2022-12-25T09:50:00.375Z,13178.880
2022-12-25T09:51:00.374Z,11151.360
2022-12-25T09:52:00.402Z,14008.320
2022-12-25T09:53:00.463Z,15298.560
2022-12-25T09:54:00.557Z,14929.920
2022-12-25T09:55:00.430Z,14008.320
2022-12-25T09:56:00.398Z,14745.600
2022-12-25T09:57:00.410Z,15943.680
2022-12-25T09:58:00.435Z,16035.840
2022-12-25T09:59:00.587Z,15667.200
2022-12-25T10:00:00.544Z,14837.760
2022-12-25T10:01:00.386Z,16220.160
2022-12-25T10:02:00.566Z,16312.320
2022-12-25T10:03:00.977Z,16773.119
2022-12-25T10:04:00.427Z,16865.279
2022-12-25T10:05:00.498Z,16588.801
2022-12-25T10:06:00.579Z,18063.359
2022-12-25T10:07:00.376Z,20828.160
2022-12-25T10:08:00.439Z,21841.920
2022-12-25T10:09:00.458Z,22671.359
2022-12-25T10:10:00.436Z,21657.600
2022-12-25T10:11:00.424Z,21381.119
2022-12-25T10:12:00.559Z,21288.961
2022-12-25T10:13:00.413Z,21934.080
2022-12-25T10:14:00.555Z,23408.641
2022-12-25T10:15:00.432Z,23777.279
2022-12-25T10:16:00.616Z,23408.641
2022-12-25T10:17:00.505Z,22671.359
2022-12-25T10:18:00.637Z,20736.000
2022-12-25T10:19:00.455Z,20920.320
2022-12-25T10:20:00.464Z,19077.119
2022-12-25T10:21:00.480Z,17694.721
2022-12-25T10:22:00.425Z,16773.119
2022-12-25T10:23:00.527Z,16035.840
2022-12-25T10:24:00.585Z,15114.240
2022-12-25T10:25:00.410Z,14745.600
2022-12-25T10:26:00.421Z,14469.120
2022-12-25T10:27:00.408Z,14929.920
2022-12-25T10:28:00.551Z,15390.720
2022-12-25T10:29:00.643Z,15482.880
2022-12-25T10:30:00.528Z,15943.680
2022-12-25T10:31:00.531Z,15851.520
2022-12-25T10:32:00.411Z,15482.880
2022-12-25T10:33:00.433Z,15206.400
2022-12-25T10:34:00.413Z,15298.560
2022-12-25T10:35:00.394Z,15575.040
2022-12-25T10:36:00.635Z,15482.880
2022-12-25T10:37:00.390Z,15851.520
2022-12-25T10:38:00.420Z,15298.560
2022-12-25T10:39:00.415Z,12072.960
2022-12-25T10:40:00.578Z,10321.920
2022-12-25T10:41:00.386Z,13731.840
2022-12-25T10:42:00.649Z,15759.360
2022-12-25T10:43:00.470Z,16128.000
2022-12-25T10:44:00.499Z,16220.160
2022-12-25T10:45:00.446Z,17602.561
2022-12-25T10:46:00.545Z,19169.279
2022-12-25T10:47:00.445Z,22026.240
2022-12-25T10:48:05.003Z,22487.039
2022-12-25T10:49:00.459Z,22302.721
2022-12-25T10:50:00.412Z,17418.240
2022-12-25T10:51:00.406Z,23777.279
2022-12-25T10:52:00.447Z,26910.721
2022-12-25T10:53:00.436Z,28569.600
2022-12-25T10:54:00.510Z,29491.199
2022-12-25T10:55:00.408Z,30412.801
2022-12-25T10:56:00.406Z,29122.561
2022-12-25T10:57:00.443Z,24698.881
2022-12-25T10:58:00.448Z,25989.119
2022-12-25T10:59:00.611Z,29491.199
2022-12-25T11:00:01.043Z,29122.561
2022-12-25T11:01:00.529Z,30228.480
2022-12-25T11:02:00.561Z,28385.279
2022-12-25T11:03:00.966Z,26542.080
2022-12-25T11:04:00.658Z,26542.080
2022-12-25T11:05:00.481Z,25989.119
2022-12-25T11:06:00.586Z,23777.279
2022-12-25T11:07:00.447Z,18432.000
2022-12-25T11:08:00.409Z,16220.160
2022-12-25T11:09:00.459Z,20920.320
2022-12-25T11:10:04.664Z,16957.439
2022-12-25T11:11:00.540Z,8801.280
2022-12-25T11:12:00.602Z,9123.840
2022-12-25T11:13:00.410Z,9077.760
2022-12-25T11:14:00.533Z,6497.280
2022-12-25T11:15:00.408Z,3709.440
2022-12-25T11:16:00.426Z,3502.080
2022-12-25T11:17:00.832Z,3525.120
2022-12-25T11:18:00.621Z,3525.120
2022-12-25T11:19:00.483Z,3409.920
2022-12-25T11:20:00.454Z,3409.920
2022-12-25T11:21:00.425Z,3363.840
2022-12-25T11:22:00.562Z,3317.760
2022-12-25T11:23:00.485Z,3294.720
2022-12-25T11:24:00.801Z,3248.640
2022-12-25T11:25:00.427Z,3340.800
2022-12-25T11:26:00.610Z,3248.640
2022-12-25T11:27:00.503Z,3202.560
2022-12-25T11:28:00.454Z,3409.920
2022-12-25T11:29:00.675Z,3110.400
2022-12-25T11:30:00.694Z,3202.560
2022-12-25T11:31:00.486Z,3110.400
2022-12-25T11:32:00.447Z,3041.280
2022-12-25T11:33:00.487Z,3018.240
2022-12-25T11:34:00.462Z,2949.120
2022-12-25T11:35:00.410Z,2926.080
2022-12-25T11:36:00.622Z,2914.560
2022-12-25T11:37:00.591Z,2868.480
2022-12-25T11:38:00.536Z,2891.520
2022-12-25T11:39:00.410Z,2937.600
2022-12-25T11:40:00.461Z,2937.600
2022-12-25T11:41:00.565Z,2937.600
2022-12-25T11:42:00.710Z,2949.120
2022-12-25T11:43:07.534Z,2914.560
2022-12-25T11:44:00.702Z,2730.240
2022-12-25T11:45:00.401Z,2787.840
2022-12-25T11:46:00.761Z,2695.680
2022-12-25T11:47:00.480Z,2603.520
2022-12-25T11:48:00.895Z,2580.480
2022-12-25T11:49:00.447Z,2511.360
2022-12-25T11:50:01.134Z,2511.360
2022-12-25T11:51:00.467Z,2545.920
2022-12-25T11:52:00.432Z,2684.160
2022-12-25T11:53:00.484Z,2488.320
2022-12-25T11:54:00.688Z,2419.200
2022-12-25T11:55:00.436Z,2361.600
2022-12-25T11:56:00.405Z,2338.560
2022-12-25T11:57:00.413Z,2269.440
2022-12-25T11:58:00.429Z,2234.880
2022-12-25T11:59:00.541Z,2165.760
2022-12-25T12:00:00.718Z,2165.760
2022-12-25T12:01:00.377Z,2119.680
2022-12-25T12:02:00.613Z,2085.120
2022-12-25T12:03:00.690Z,2085.120
2022-12-25T12:04:00.598Z,2050.560
2022-12-25T12:05:00.437Z,2016.000